createdAt,value
2019-03-30T00:01:06.062Z,100630.40
2019-03-30T00:03:35.786Z,100622.66
2019-03-30T00:08:36.761Z,100628.71
2019-03-30T00:11:06.481Z,100630.72
2019-03-30T00:13:36.164Z,100628.98
2019-03-30T00:16:05.853Z,100633.42
2019-03-30T00:18:35.686Z,100628.78
2019-03-30T00:21:05.598Z,100629.69
2019-03-30T00:23:35.334Z,100630.02
2019-03-30T00:26:05.190Z,100627.36
2019-03-30T00:28:34.878Z,100628.94
2019-03-30T00:31:04.742Z,100633.08
2019-03-30T00:33:34.431Z,100627.69
2019-03-30T00:36:04.410Z,100627.57
2019-03-30T00:38:34.099Z,100631.11
2019-03-30T00:41:03.829Z,100625.84
2019-03-30T00:43:33.696Z,100622.41
2019-03-30T00:46:03.390Z,100622.86
2019-03-30T00:48:33.142Z,100619.07
2019-03-30T00:51:03.030Z,100610.22
2019-03-30T00:53:32.793Z,100620.97
2019-03-30T00:56:02.522Z,100613.84
2019-03-30T00:58:32.322Z,100622.86
2019-03-30T01:01:02.176Z,100624.78
2019-03-30T01:03:31.929Z,100622.80
2019-03-30T01:06:01.690Z,100619.81
2019-03-30T01:08:31.435Z,100622.95
2019-03-30T01:11:01.311Z,100614.17
2019-03-30T01:13:30.986Z,100614.79
2019-03-30T01:16:00.779Z,100615.91
2019-03-30T01:18:30.505Z,100612.72
2019-03-30T01:21:00.377Z,100609.56
2019-03-30T01:23:30.168Z,100609.23
2019-03-30T01:25:59.872Z,100609.39
2019-03-30T01:28:29.582Z,100611.67
2019-03-30T01:30:59.577Z,100603.98
2019-03-30T01:33:29.686Z,100603.73
2019-03-30T01:35:59.436Z,100600.70
2019-03-30T01:38:29.260Z,100602.24
2019-03-30T01:40:59.039Z,100602.69
2019-03-30T01:43:28.734Z,100597.83
2019-03-30T01:45:58.596Z,100601.97
2019-03-30T01:48:28.395Z,100590.83
2019-03-30T01:50:58.071Z,100589.73
2019-03-30T01:53:27.778Z,100586.84
2019-03-30T01:55:57.494Z,100573.79
2019-03-30T01:58:27.239Z,100583.41
2019-03-30T02:00:56.941Z,100581.36
2019-03-30T02:03:26.643Z,100578.83
2019-03-30T02:05:56.370Z,100580.44
2019-03-30T02:08:26.029Z,100579.37
2019-03-30T02:10:55.738Z,100572.45
2019-03-30T02:13:25.416Z,100577.42
2019-03-30T02:15:55.372Z,100572.05
2019-03-30T02:18:25.091Z,100578.56
2019-03-30T02:20:54.803Z,100581.50
2019-03-30T02:23:24.467Z,100588.34
2019-03-30T02:25:54.161Z,100587.48
2019-03-30T02:28:24.015Z,100586.23
2019-03-30T02:30:53.676Z,100579.77
2019-03-30T02:33:23.406Z,100578.08
2019-03-30T02:35:53.192Z,100578.71
2019-03-30T02:38:22.940Z,100577.38
2019-03-30T02:40:52.600Z,100578.97
2019-03-30T02:43:22.541Z,100578.97
2019-03-30T02:45:52.187Z,100579.26
2019-03-30T02:48:21.983Z,100582.97
2019-03-30T02:50:51.703Z,100578.34
2019-03-30T02:53:21.363Z,100584.18
2019-03-30T02:55:51.049Z,100590.69
2019-03-30T02:58:20.753Z,100587.23
2019-03-30T03:00:50.462Z,100594.02
2019-03-30T03:03:20.429Z,100587.08
2019-03-30T03:05:50.111Z,100592.04
2019-03-30T03:08:19.931Z,100593.98
2019-03-30T03:10:49.808Z,100599.41
2019-03-30T03:13:19.476Z,100594.47
2019-03-30T03:15:49.159Z,100590.25
2019-03-30T03:18:19.020Z,100593.63
2019-03-30T03:21:06.134Z,100587.20
2019-03-30T03:23:20.398Z,100578.44
2019-03-30T03:25:50.099Z,100581.80
2019-03-30T03:28:19.961Z,100579.19
2019-03-30T03:30:49.699Z,100566.57
2019-03-30T03:33:19.413Z,100577.05
2019-03-30T03:35:49.138Z,100570.45
2019-03-30T03:38:18.767Z,100569.70
2019-03-30T03:40:48.466Z,100572.43
2019-03-30T03:43:18.139Z,100576.25
2019-03-30T03:45:47.835Z,100572.17
2019-03-30T03:48:17.618Z,100583.20
2019-03-30T03:50:49.506Z,100580.84
2019-03-30T03:53:19.461Z,100579.42
2019-03-30T03:55:49.261Z,100581.35
2019-03-30T03:58:20.666Z,100581.11
2019-03-30T04:00:53.486Z,100582.80
2019-03-30T04:03:23.690Z,100576.61
2019-03-30T04:05:56.278Z,100573.66
2019-03-30T04:08:29.181Z,100574.12
2019-03-30T04:10:59.744Z,100575.38
2019-03-30T04:13:30.652Z,100576.53
2019-03-30T04:16:00.319Z,100580.86
2019-03-30T04:18:30.048Z,100574.88
2019-03-30T04:20:59.712Z,100580.26
2019-03-30T04:23:29.650Z,100578.12
2019-03-30T04:25:59.625Z,100572.22
2019-03-30T04:28:29.363Z,100572.97
2019-03-30T04:30:59.208Z,100574.25
2019-03-30T04:33:28.905Z,100573.71
2019-03-30T04:35:58.558Z,100577.33
2019-03-30T04:38:28.334Z,100576.28
2019-03-30T04:40:58.045Z,100573.21
2019-03-30T04:43:27.728Z,100574.59
2019-03-30T04:45:57.676Z,100574.06
2019-03-30T04:48:29.494Z,100578.33
2019-03-30T04:50:59.029Z,100572.41
2019-03-30T04:53:28.705Z,100570.05
2019-03-30T04:55:58.443Z,100569.33
2019-03-30T04:58:28.141Z,100569.86
2019-03-30T05:00:57.821Z,100573.42
2019-03-30T05:03:27.747Z,100570.72
2019-03-30T05:05:57.444Z,100571.45
2019-03-30T05:08:27.148Z,100572.98
2019-03-30T05:10:56.830Z,100565.87
2019-03-30T05:13:26.519Z,100572.94
2019-03-30T05:15:56.419Z,100574.05
2019-03-30T05:18:26.108Z,100566.84
2019-03-30T05:20:56.082Z,100572.06
2019-03-30T05:23:26.010Z,100568.73
2019-03-30T05:25:55.698Z,100577.52
2019-03-30T05:28:25.534Z,100566.64
2019-03-30T05:30:55.213Z,100572.20
2019-03-30T05:33:24.916Z,100575.09
2019-03-30T05:35:54.574Z,100576.46
2019-03-30T05:38:24.327Z,100576.05
2019-03-30T05:40:54.037Z,100578.70
2019-03-30T05:43:23.693Z,100585.08
2019-03-30T05:45:53.455Z,100584.30
2019-03-30T05:48:23.284Z,100588.28
2019-03-30T05:50:52.986Z,100587.38
2019-03-30T05:53:22.869Z,100588.97
2019-03-30T05:55:52.711Z,100587.25
2019-03-30T05:58:22.477Z,100587.14
2019-03-30T06:00:52.153Z,100589.59
2019-03-30T06:03:22.140Z,100582.78
2019-03-30T06:05:51.853Z,100591.35
2019-03-30T06:08:21.772Z,100595.52
2019-03-30T06:10:51.468Z,100596.36
2019-03-30T06:13:21.152Z,100597.23
2019-03-30T06:15:53.875Z,100593.92
2019-03-30T06:18:23.649Z,100597.14
2019-03-30T06:20:53.446Z,100593.11
2019-03-30T06:23:23.242Z,100592.67
2019-03-30T06:25:53.025Z,100594.16
2019-03-30T06:28:22.853Z,100588.05
2019-03-30T06:30:52.509Z,100590.14
2019-03-30T06:33:22.527Z,100589.50
2019-03-30T06:35:52.261Z,100590.22
2019-03-30T06:38:22.005Z,100587.63
2019-03-30T06:40:51.692Z,100585.57
2019-03-30T06:43:21.402Z,100584.38
2019-03-30T06:45:51.360Z,100587.47
2019-03-30T06:48:21.412Z,100590.61
2019-03-30T06:50:51.133Z,100586.63
2019-03-30T06:53:20.840Z,100587.39
2019-03-30T06:55:50.591Z,100592.77
2019-03-30T06:58:20.360Z,100589.36
2019-03-30T07:00:51.439Z,100586.92
2019-03-30T07:03:21.727Z,100575.27
2019-03-30T07:05:52.602Z,100579.50
2019-03-30T07:08:22.447Z,100581.12
2019-03-30T07:10:52.135Z,100573.97
2019-03-30T07:13:22.333Z,100575.06
2019-03-30T07:15:52.190Z,100575.54
2019-03-30T07:18:21.912Z,100568.30
2019-03-30T07:20:52.261Z,100574.80
2019-03-30T07:23:22.154Z,100569.72
2019-03-30T07:25:51.849Z,100568.87
2019-03-30T07:28:21.574Z,100575.75
2019-03-30T07:30:51.291Z,100579.07
2019-03-30T07:33:20.993Z,100573.50
2019-03-30T07:35:50.784Z,100572.69
2019-03-30T07:38:20.538Z,100571.56
2019-03-30T07:40:50.330Z,100573.19
2019-03-30T07:43:20.148Z,100566.01
2019-03-30T07:45:49.886Z,100561.36
2019-03-30T07:48:19.802Z,100561.20
2019-03-30T07:50:49.589Z,100563.46
2019-03-30T07:53:26.271Z,100559.64
2019-03-30T07:55:50.742Z,100557.28
2019-03-30T07:58:20.521Z,100557.00
2019-03-30T08:00:50.246Z,100558.06
2019-03-30T08:03:19.976Z,100556.09
2019-03-30T08:05:49.729Z,100548.78
2019-03-30T08:08:19.545Z,100553.75
2019-03-30T08:10:49.434Z,100558.25
2019-03-30T08:13:19.148Z,100550.93
2019-03-30T08:15:49.049Z,100555.97
2019-03-30T08:18:18.725Z,100552.51
2019-03-30T08:20:48.732Z,100552.23
2019-03-30T08:23:18.471Z,100555.90
2019-03-30T08:25:48.170Z,100553.70
2019-03-30T08:28:18.260Z,100561.54
2019-03-30T08:30:48.022Z,100549.58
2019-03-30T08:33:17.794Z,100552.74
2019-03-30T08:35:47.515Z,100546.36
2019-03-30T08:38:17.337Z,100544.70
2019-03-30T08:40:47.082Z,100549.49
2019-03-30T08:43:16.980Z,100546.06
2019-03-30T08:45:48.959Z,100544.55
2019-03-30T08:48:18.566Z,100540.31
2019-03-30T08:50:49.792Z,100535.78
2019-03-30T08:53:19.487Z,100537.55
2019-03-30T08:55:49.236Z,100537.83
2019-03-30T08:58:18.916Z,100538.78
2019-03-30T09:00:48.710Z,100532.00
2019-03-30T09:03:18.430Z,100532.64
2019-03-30T09:05:48.178Z,100520.84
2019-03-30T09:08:18.061Z,100517.44
2019-03-30T09:10:47.831Z,100516.53
2019-03-30T09:13:17.595Z,100517.95
2019-03-30T09:15:47.404Z,100511.69
2019-03-30T09:18:17.463Z,100512.68
2019-03-30T09:20:47.210Z,100506.23
2019-03-30T09:23:17.006Z,100502.27
2019-03-30T09:25:46.752Z,100502.37
2019-03-30T09:28:16.961Z,100495.30
2019-03-30T09:30:46.784Z,100491.53
2019-03-30T09:33:16.557Z,100482.41
2019-03-30T09:35:46.413Z,100489.02
2019-03-30T09:38:16.137Z,100488.43
2019-03-30T09:40:45.862Z,100487.70
2019-03-30T09:43:16.021Z,100482.88
2019-03-30T09:45:45.713Z,100485.55
2019-03-30T09:48:15.445Z,100480.20
2019-03-30T09:50:45.631Z,100477.75
2019-03-30T09:53:15.406Z,100473.97
2019-03-30T09:55:45.138Z,100475.30
2019-03-30T09:58:14.994Z,100475.68
2019-03-30T10:00:44.994Z,100468.63
2019-03-30T10:03:14.841Z,100474.66
2019-03-30T10:05:44.856Z,100469.02
2019-03-30T10:08:14.592Z,100461.92
2019-03-30T10:10:44.341Z,100458.94
2019-03-30T10:13:14.220Z,100455.84
2019-03-30T10:15:43.940Z,100455.11
2019-03-30T10:18:13.768Z,100450.67
2019-03-30T10:20:43.456Z,100446.66
2019-03-30T10:23:13.211Z,100436.44
2019-03-30T10:25:42.981Z,100434.28
2019-03-30T10:28:12.746Z,100431.31
2019-03-30T10:30:42.503Z,100434.98
2019-03-30T10:33:12.269Z,100429.36
2019-03-30T10:35:42.081Z,100432.44
2019-03-30T10:38:11.900Z,100429.78
2019-03-30T10:40:42.213Z,100417.94
2019-03-30T10:43:12.247Z,100416.52
2019-03-30T10:45:42.011Z,100419.87
2019-03-30T10:48:11.879Z,100417.39
2019-03-30T10:50:41.605Z,100407.80
2019-03-30T10:53:11.712Z,100407.97
2019-03-30T10:55:41.445Z,100408.62
2019-03-30T10:58:11.154Z,100404.98
2019-03-30T11:00:41.814Z,100394.81
2019-03-30T11:03:11.819Z,100396.05
2019-03-30T11:05:41.738Z,100386.35
2019-03-30T11:08:11.504Z,100384.54
2019-03-30T11:10:41.359Z,100381.84
2019-03-30T11:13:11.273Z,100372.11
2019-03-30T11:15:41.062Z,100371.12
2019-03-30T11:18:10.794Z,100365.64
2019-03-30T11:20:41.321Z,100362.53
2019-03-30T11:23:11.022Z,100362.45
2019-03-30T11:25:40.755Z,100357.23
2019-03-30T11:28:10.446Z,100362.34
2019-03-30T11:30:40.335Z,100351.69
2019-03-30T11:33:10.111Z,100357.70
2019-03-30T11:35:40.014Z,100349.16
2019-03-30T11:38:09.727Z,100351.70
2019-03-30T11:40:39.437Z,100341.81
2019-03-30T11:43:09.187Z,100338.32
2019-03-30T11:45:38.985Z,100340.38
2019-03-30T11:48:08.728Z,100334.45
2019-03-30T11:50:38.451Z,100326.37
2019-03-30T11:53:08.141Z,100330.06
2019-03-30T11:55:37.867Z,100321.22
2019-03-30T11:58:07.907Z,100318.67
2019-03-30T12:00:37.652Z,100310.94
2019-03-30T12:03:07.482Z,100313.31
2019-03-30T12:05:37.518Z,100313.70
2019-03-30T12:08:07.221Z,100309.60
2019-03-30T12:10:37.233Z,100303.19
2019-03-30T12:13:07.047Z,100307.27
2019-03-30T12:15:36.756Z,100299.64
2019-03-30T12:18:06.580Z,100293.13
2019-03-30T12:20:36.305Z,100294.98
2019-03-30T12:23:06.011Z,100292.22
2019-03-30T12:25:36.337Z,100286.54
2019-03-30T12:28:06.100Z,100286.52
2019-03-30T12:30:35.874Z,100286.64
2019-03-30T12:33:06.688Z,100280.11
2019-03-30T12:35:37.765Z,100272.22
2019-03-30T12:38:07.486Z,100264.64
2019-03-30T12:40:37.170Z,100259.69
2019-03-30T12:43:06.856Z,100254.37
2019-03-30T12:45:36.696Z,100252.00
2019-03-30T12:48:06.418Z,100248.18
2019-03-30T12:50:36.191Z,100244.73
2019-03-30T12:53:06.143Z,100244.98
2019-03-30T12:55:48.561Z,100243.60
2019-03-30T12:58:07.492Z,100236.02
2019-03-30T13:00:37.321Z,100227.92
2019-03-30T13:03:07.106Z,100227.40
2019-03-30T13:05:36.895Z,100220.80
2019-03-30T13:08:06.888Z,100215.50
2019-03-30T13:10:36.600Z,100212.55
2019-03-30T13:13:06.461Z,100219.23
2019-03-30T13:15:36.163Z,100210.78
2019-03-30T13:18:05.972Z,100209.48
2019-03-30T13:20:35.807Z,100203.35
2019-03-30T13:23:05.549Z,100197.14
2019-03-30T13:25:35.329Z,100197.66
2019-03-30T13:28:05.145Z,100201.12
2019-03-30T13:30:34.853Z,100187.52
2019-03-30T13:33:04.698Z,100185.95
2019-03-30T13:35:34.845Z,100189.97
2019-03-30T13:38:04.703Z,100192.23
2019-03-30T13:40:34.411Z,100189.13
2019-03-30T13:43:04.145Z,100182.47
2019-03-30T13:45:33.909Z,100174.50
2019-03-30T13:48:03.601Z,100176.55
2019-03-30T13:50:33.331Z,100159.42
2019-03-30T13:53:03.050Z,100162.20
2019-03-30T13:55:32.876Z,100163.31
2019-03-30T13:58:02.592Z,100170.23
2019-03-30T14:00:32.253Z,100164.83
2019-03-30T14:03:01.976Z,100152.00
2019-03-30T14:05:31.702Z,100151.89
2019-03-30T14:08:01.436Z,100153.98
2019-03-30T14:10:31.192Z,100148.72
2019-03-30T14:13:00.900Z,100144.06
2019-03-30T14:15:30.763Z,100136.75
2019-03-30T14:18:00.537Z,100135.28
2019-03-30T14:20:30.533Z,100135.99
2019-03-30T14:23:00.230Z,100133.34
2019-03-30T14:25:29.937Z,100133.64
2019-03-30T14:27:59.664Z,100120.23
2019-03-30T14:30:29.420Z,100127.80
2019-03-30T14:32:59.144Z,100124.80
2019-03-30T14:35:29.002Z,100118.67
2019-03-30T14:38:00.531Z,100119.42
2019-03-30T14:40:30.297Z,100118.80
2019-03-30T14:43:00.132Z,100111.30
2019-03-30T14:45:29.873Z,100108.09
2019-03-30T14:47:59.649Z,100099.67
2019-03-30T14:50:29.545Z,100099.29
2019-03-30T14:52:59.359Z,100108.67
2019-03-30T14:55:29.073Z,100105.75
2019-03-30T14:57:58.821Z,100095.52
2019-03-30T15:00:28.702Z,100099.00
2019-03-30T15:02:58.600Z,100090.48
2019-03-30T15:05:28.372Z,100093.81
2019-03-30T15:07:58.072Z,100081.99
2019-03-30T15:10:27.772Z,100084.44
2019-03-30T15:12:57.580Z,100088.39
2019-03-30T15:15:27.406Z,100084.98
2019-03-30T15:17:57.160Z,100081.33
2019-03-30T15:20:26.872Z,100068.50
2019-03-30T15:22:56.612Z,100065.05
2019-03-30T15:25:26.330Z,100064.14
2019-03-30T15:27:56.042Z,100064.40
2019-03-30T15:30:25.759Z,100056.78
2019-03-30T15:32:55.844Z,100047.37
2019-03-30T15:35:26.091Z,100053.89
2019-03-30T15:37:55.991Z,100049.66
2019-03-30T15:40:25.686Z,100047.92
2019-03-30T15:42:56.093Z,100046.17
2019-03-30T15:45:25.965Z,100040.63
2019-03-30T15:47:55.728Z,100046.03
2019-03-30T15:50:25.436Z,100036.53
2019-03-30T15:52:55.757Z,100036.48
2019-03-30T15:55:25.771Z,100038.16
2019-03-30T15:57:55.489Z,100035.95
2019-03-30T16:00:25.265Z,100033.73
2019-03-30T16:02:54.989Z,100030.94
2019-03-30T16:05:24.735Z,100026.75
2019-03-30T16:07:54.505Z,100030.34
2019-03-30T16:10:24.342Z,100027.03
2019-03-30T16:12:54.069Z,100029.70
2019-03-30T16:15:24.046Z,100025.12
2019-03-30T16:17:53.737Z,100028.01
2019-03-30T16:20:23.503Z,100026.33
2019-03-30T16:22:53.248Z,100023.69
2019-03-30T16:25:23.231Z,100021.89
2019-03-30T16:27:53.102Z,100030.60
2019-03-30T16:30:22.975Z,100032.34
2019-03-30T16:32:52.828Z,100024.92
2019-03-30T16:35:22.588Z,100030.06
2019-03-30T16:37:52.531Z,100026.27
2019-03-30T16:40:22.293Z,100024.46
2019-03-30T16:42:51.973Z,100025.78
2019-03-30T16:45:21.903Z,100021.80
2019-03-30T16:47:51.719Z,100022.96
2019-03-30T16:50:21.815Z,100014.70
2019-03-30T16:52:51.534Z,100021.83
2019-03-30T16:55:21.215Z,100020.84
2019-03-30T16:57:50.966Z,100019.52
2019-03-30T17:00:20.779Z,100021.32
2019-03-30T17:02:50.505Z,100015.23
2019-03-30T17:05:20.420Z,100020.32
2019-03-30T17:07:50.155Z,100017.69
2019-03-30T17:10:20.036Z,100019.03
2019-03-30T17:12:49.817Z,100014.73
2019-03-30T17:15:19.552Z,100016.73
2019-03-30T17:17:49.264Z,100014.55
2019-03-30T17:20:19.076Z,100012.88
2019-03-30T17:22:48.768Z,100012.41
2019-03-30T17:25:18.719Z,100009.91
2019-03-30T17:27:58.001Z,100011.55
2019-03-30T17:30:20.083Z,100006.93
2019-03-30T17:32:50.925Z,100008.50
2019-03-30T17:35:20.697Z,100008.94
2019-03-30T17:37:50.445Z,100013.30
2019-03-30T17:40:20.302Z,100011.17
2019-03-30T17:42:50.143Z,100009.93
2019-03-30T17:45:20.417Z,100017.41
2019-03-30T17:47:50.153Z,100012.98
2019-03-30T17:50:19.911Z,100009.48
2019-03-30T17:52:49.650Z,100021.23
2019-03-30T17:55:32.776Z,100021.86
2019-03-30T17:57:51.033Z,100020.84
2019-03-30T18:00:21.031Z,100029.83
2019-03-30T18:02:50.766Z,100024.87
2019-03-30T18:05:20.574Z,100033.17
2019-03-30T18:07:50.292Z,100030.79
2019-03-30T18:10:20.075Z,100031.08
2019-03-30T18:12:49.785Z,100032.54
2019-03-30T18:15:19.551Z,100039.36
2019-03-30T18:17:49.405Z,100038.41
2019-03-30T18:20:19.091Z,100039.44
2019-03-30T18:22:48.992Z,100042.81
2019-03-30T18:25:18.921Z,100043.16
2019-03-30T18:27:48.903Z,100046.90
2019-03-30T18:30:25.287Z,100051.77
2019-03-30T18:32:55.092Z,100052.88
2019-03-30T18:35:24.945Z,100057.39
2019-03-30T18:37:55.653Z,100055.66
2019-03-30T18:40:29.358Z,100059.68
2019-03-30T18:42:59.738Z,100062.26
2019-03-30T18:45:30.082Z,100060.93
2019-03-30T18:48:11.747Z,100063.66
2019-03-30T18:50:41.868Z,100067.66
2019-03-30T18:53:11.850Z,100068.47
2019-03-30T18:55:41.948Z,100069.64
2019-03-30T18:58:11.849Z,100075.52
2019-03-30T19:00:41.602Z,100078.93
2019-03-30T19:03:11.473Z,100079.49
2019-03-30T19:05:41.510Z,100082.19
2019-03-30T19:08:11.176Z,100086.56
2019-03-30T19:10:40.965Z,100084.37
2019-03-30T19:13:11.570Z,100088.47
2019-03-30T19:15:41.324Z,100083.20
2019-03-30T19:18:11.329Z,100086.97
2019-03-30T19:20:41.205Z,100088.78
2019-03-30T19:23:11.107Z,100092.77
2019-03-30T19:25:40.887Z,100091.39
2019-03-30T19:28:10.646Z,100085.33
2019-03-30T19:30:42.236Z,100091.68
2019-03-30T19:33:11.903Z,100095.75
2019-03-30T19:35:41.687Z,100099.65
2019-03-30T19:38:11.596Z,100096.30
2019-03-30T19:40:41.421Z,100104.52
2019-03-30T19:43:11.221Z,100104.73
2019-03-30T19:45:40.994Z,100103.73
2019-03-30T19:48:10.848Z,100101.69
2019-03-30T19:50:40.633Z,100104.87
2019-03-30T19:53:10.534Z,100103.39
2019-03-30T19:55:40.765Z,100103.12
2019-03-30T19:58:10.665Z,100107.02
2019-03-30T20:00:40.489Z,100110.84
2019-03-30T20:03:10.253Z,100106.35
2019-03-30T20:05:40.190Z,100112.77
2019-03-30T20:08:12.300Z,100113.84
2019-03-30T20:10:41.596Z,100113.84
2019-03-30T20:13:11.607Z,100113.55
2019-03-30T20:15:41.346Z,100106.25
2019-03-30T20:18:11.233Z,100111.36
2019-03-30T20:20:40.984Z,100110.78
2019-03-30T20:23:10.892Z,100114.18
2019-03-30T20:25:40.604Z,100112.53
2019-03-30T20:28:10.401Z,100116.26
2019-03-30T20:30:40.249Z,100109.42
2019-03-30T20:33:10.040Z,100110.11
2019-03-30T20:35:39.779Z,100114.56
2019-03-30T20:38:09.754Z,100118.55
2019-03-30T20:40:39.485Z,100118.46
2019-03-30T20:43:09.249Z,100121.08
2019-03-30T20:45:41.261Z,100119.44
2019-03-30T20:48:11.269Z,100119.53
2019-03-30T20:50:40.998Z,100120.09
2019-03-30T20:53:10.904Z,100124.91
2019-03-30T20:55:40.699Z,100124.72
2019-03-30T20:58:10.507Z,100116.41
2019-03-30T21:00:40.463Z,100116.13
2019-03-30T21:03:10.237Z,100109.84
2019-03-30T21:05:40.030Z,100119.07
2019-03-30T21:08:09.753Z,100121.02
2019-03-30T21:10:39.616Z,100120.09
2019-03-30T21:13:09.319Z,100120.94
2019-03-30T21:15:39.145Z,100123.14
2019-03-30T21:18:08.836Z,100118.42
2019-03-30T21:20:38.576Z,100119.72
2019-03-30T21:23:08.372Z,100114.53
2019-03-30T21:25:39.188Z,100111.03
2019-03-30T21:28:08.995Z,100120.29
2019-03-30T21:30:38.817Z,100116.86
2019-03-30T21:33:08.510Z,100120.70
2019-03-30T21:35:41.131Z,100119.51
2019-03-30T21:38:10.814Z,100117.72
2019-03-30T21:40:40.533Z,100117.38
2019-03-30T21:43:10.315Z,100120.28
2019-03-30T21:45:41.509Z,100120.89
2019-03-30T21:48:11.267Z,100119.92
2019-03-30T21:50:40.987Z,100119.59
2019-03-30T21:53:10.756Z,100120.52
2019-03-30T21:55:40.500Z,100118.58
2019-03-30T21:58:10.679Z,100123.88
2019-03-30T22:00:41.016Z,100114.49
2019-03-30T22:03:10.658Z,100118.88
2019-03-30T22:05:40.496Z,100120.47
2019-03-30T22:08:10.303Z,100123.19
2019-03-30T22:10:40.918Z,100124.52
2019-03-30T22:13:10.664Z,100128.82
2019-03-30T22:15:40.411Z,100132.28
2019-03-30T22:18:10.130Z,100125.78
2019-03-30T22:20:40.019Z,100128.64
2019-03-30T22:23:09.742Z,100128.77
2019-03-30T22:25:39.518Z,100127.31
2019-03-30T22:28:09.234Z,100128.26
2019-03-30T22:30:38.959Z,100128.98
2019-03-30T22:33:08.734Z,100127.65
2019-03-30T22:35:38.528Z,100118.93
2019-03-30T22:38:08.366Z,100120.97
2019-03-30T22:40:41.296Z,100122.47
2019-03-30T22:43:09.515Z,100124.50
2019-03-30T22:45:39.201Z,100129.50
2019-03-30T22:48:08.944Z,100124.30
2019-03-30T22:50:38.716Z,100124.13
2019-03-30T22:53:08.427Z,100120.65
2019-03-30T22:55:40.599Z,100123.33
2019-03-30T22:58:10.353Z,100122.43
2019-03-30T23:00:57.543Z,100123.40
2019-03-30T23:03:27.245Z,100120.75
2019-03-30T23:05:57.005Z,100119.36
2019-03-30T23:08:26.804Z,100121.72
2019-03-30T23:10:56.500Z,100122.33
2019-03-30T23:13:26.359Z,100120.14
2019-03-30T23:15:56.225Z,100110.48
2019-03-30T23:18:26.115Z,100112.94
2019-03-30T23:20:55.832Z,100115.75
2019-03-30T23:23:25.642Z,100114.19
2019-03-30T23:25:55.396Z,100113.97
2019-03-30T23:28:25.109Z,100118.91
2019-03-30T23:30:54.986Z,100115.75
2019-03-30T23:33:24.702Z,100123.27
2019-03-30T23:35:54.397Z,100119.55
2019-03-30T23:38:24.091Z,100115.61
2019-03-30T23:40:53.803Z,100116.58
2019-03-30T23:43:23.541Z,100118.72
2019-03-30T23:45:53.351Z,100116.04
2019-03-30T23:48:23.047Z,100120.01
2019-03-30T23:50:52.783Z,100125.23
2019-03-30T23:53:22.575Z,100118.79
2019-03-30T23:55:52.596Z,100111.87
2019-03-30T23:58:22.298Z,100101.10
